createdAt,value
2018-06-14T00:00:54.316Z,15.63
2018-06-14T00:03:23.552Z,12.80
2018-06-14T00:05:52.793Z,10.60
2018-06-14T00:08:22.024Z,14.63
2018-06-14T00:10:51.225Z,11.07
2018-06-14T00:13:20.723Z,14.20
2018-06-14T00:15:49.980Z,9.90
2018-06-14T00:18:19.167Z,9.77
2018-06-14T00:20:48.419Z,10.33
2018-06-14T00:23:17.634Z,9.63
2018-06-14T00:25:47.029Z,10.77
2018-06-14T00:28:16.236Z,10.10
2018-06-14T00:30:45.417Z,11.33
2018-06-14T00:33:14.607Z,9.83
2018-06-14T00:35:43.881Z,11.07
2018-06-14T00:38:13.058Z,10.27
2018-06-14T00:40:42.193Z,9.90
2018-06-14T00:43:11.505Z,14.03
2018-06-14T00:45:41.007Z,10.63
2018-06-14T00:48:10.133Z,10.08
2018-06-14T00:50:38.325Z,10.50
2018-06-14T00:53:06.260Z,10.23
2018-06-14T00:55:35.559Z,11.33
2018-06-14T00:58:04.805Z,10.03
2018-06-14T01:00:33.885Z,11.47
2018-06-14T01:03:03.143Z,10.60
2018-06-14T01:05:32.247Z,16.57
2018-06-14T01:08:02.690Z,10.60
2018-06-14T01:10:31.836Z,10.87
2018-06-14T01:13:01.022Z,10.87
2018-06-14T01:15:30.309Z,11.60
2018-06-14T01:17:59.970Z,12.63
2018-06-14T01:20:29.186Z,11.63
2018-06-14T01:22:58.883Z,10.53
2018-06-14T01:25:28.062Z,10.80
2018-06-14T01:27:57.359Z,10.97
2018-06-14T01:30:26.597Z,14.30
2018-06-14T01:32:55.717Z,10.93
2018-06-14T01:35:24.885Z,12.53
2018-06-14T01:38:05.177Z,12.50
2018-06-14T01:40:34.342Z,10.13
2018-06-14T01:43:03.431Z,10.60
2018-06-14T01:45:32.605Z,9.97
2018-06-14T01:48:01.696Z,10.53
2018-06-14T01:50:30.799Z,12.50
2018-06-14T01:52:59.955Z,10.80
2018-06-14T01:55:32.061Z,14.03
2018-06-14T01:58:01.713Z,10.17
2018-06-14T02:00:30.785Z,11.40
2018-06-14T02:02:59.891Z,10.97
2018-06-14T02:05:29.357Z,10.63
2018-06-14T02:07:58.884Z,12.43
2018-06-14T02:10:28.773Z,11.70
2018-06-14T02:12:58.291Z,12.03
2018-06-14T02:15:28.613Z,13.40
2018-06-14T02:17:58.454Z,13.03
2018-06-14T02:20:27.785Z,10.93
2018-06-14T02:22:57.035Z,11.03
2018-06-14T02:25:26.104Z,11.60
2018-06-14T02:27:55.212Z,18.13
2018-06-14T02:30:25.328Z,10.33
2018-06-14T02:32:54.628Z,10.10
2018-06-14T02:35:23.831Z,14.63
2018-06-14T02:37:53.044Z,10.40
2018-06-14T02:40:22.249Z,10.95
2018-06-14T02:42:51.386Z,11.13
2018-06-14T02:45:20.505Z,10.35
2018-06-14T02:47:49.682Z,12.67
2018-06-14T02:50:18.857Z,11.35
2018-06-14T02:52:48.000Z,11.40
2018-06-14T02:55:17.985Z,11.90
2018-06-14T02:57:47.107Z,10.57
2018-06-14T03:00:16.225Z,11.40
2018-06-14T03:02:45.452Z,14.03
2018-06-14T03:05:14.598Z,10.58
2018-06-14T03:07:43.665Z,9.90
2018-06-14T03:10:12.823Z,12.47
2018-06-14T03:12:41.919Z,10.53
2018-06-14T03:15:11.158Z,11.50
2018-06-14T03:17:40.275Z,11.30
2018-06-14T03:20:09.394Z,9.97
2018-06-14T03:22:38.639Z,16.73
2018-06-14T03:25:07.792Z,15.83
2018-06-14T03:27:36.940Z,11.10
2018-06-14T03:30:06.103Z,12.17
2018-06-14T03:32:35.344Z,15.70
2018-06-14T03:35:04.625Z,11.73
2018-06-14T03:37:33.768Z,13.40
2018-06-14T03:40:02.915Z,15.00
2018-06-14T03:42:32.130Z,11.60
2018-06-14T03:45:01.290Z,12.03
2018-06-14T03:47:30.404Z,12.40
2018-06-14T03:49:59.583Z,13.10
2018-06-14T03:52:28.784Z,12.57
2018-06-14T03:54:57.895Z,10.67
2018-06-14T03:57:27.059Z,14.63
2018-06-14T03:59:56.245Z,11.33
2018-06-14T04:02:25.388Z,12.90
2018-06-14T04:04:54.511Z,14.50
2018-06-14T04:07:23.602Z,11.50
2018-06-14T04:09:52.725Z,11.63
2018-06-14T04:12:21.901Z,11.68
2018-06-14T04:14:51.047Z,11.10
2018-06-14T04:17:20.182Z,14.07
2018-06-14T04:19:49.383Z,12.50
2018-06-14T04:22:18.470Z,17.10
2018-06-14T04:24:47.657Z,12.77
2018-06-14T04:27:17.387Z,16.48
2018-06-14T04:29:58.245Z,28.50
2018-06-14T04:32:27.415Z,12.67
2018-06-14T04:34:56.650Z,11.70
2018-06-14T04:37:25.787Z,12.60
2018-06-14T04:39:54.968Z,11.80
2018-06-14T04:42:24.416Z,14.10
2018-06-14T04:44:54.397Z,12.87
2018-06-14T04:47:25.477Z,12.20
2018-06-14T04:49:55.238Z,12.80
2018-06-14T04:52:24.378Z,13.47
2018-06-14T04:54:53.454Z,14.13
2018-06-14T04:57:22.733Z,12.30
2018-06-14T04:59:51.840Z,12.27
2018-06-14T05:02:21.710Z,17.52
2018-06-14T05:04:50.838Z,20.37
2018-06-14T05:07:20.314Z,13.80
2018-06-14T05:09:49.556Z,12.80
2018-06-14T05:12:18.618Z,24.67
2018-06-14T05:14:47.667Z,22.23
2018-06-14T05:17:16.809Z,17.73
2018-06-14T05:19:46.053Z,24.27
2018-06-14T05:22:15.385Z,14.43
2018-06-14T05:24:44.671Z,13.20
2018-06-14T05:27:13.935Z,22.65
2018-06-14T05:29:43.047Z,16.23
2018-06-14T05:32:12.737Z,12.53
2018-06-14T05:34:42.254Z,19.03
2018-06-14T05:37:11.759Z,12.58
2018-06-14T05:39:40.914Z,14.17
2018-06-14T05:42:10.093Z,15.77
2018-06-14T05:44:39.580Z,17.23
2018-06-14T05:47:08.693Z,13.13
2018-06-14T05:49:37.837Z,18.00
2018-06-14T05:52:06.982Z,21.97
2018-06-14T05:54:36.131Z,17.17
2018-06-14T05:57:05.722Z,13.35
2018-06-14T05:59:35.014Z,19.87
2018-06-14T06:02:04.266Z,18.43
2018-06-14T06:04:33.435Z,15.93
2018-06-14T06:07:02.662Z,19.27
2018-06-14T06:09:31.868Z,13.23
2018-06-14T06:12:01.011Z,14.57
2018-06-14T06:14:30.154Z,14.13
2018-06-14T06:16:59.470Z,18.23
2018-06-14T06:19:28.921Z,13.10
2018-06-14T06:21:58.291Z,20.70
2018-06-14T06:24:27.446Z,14.50
2018-06-14T06:26:56.615Z,19.77
2018-06-14T06:29:25.882Z,22.32
2018-06-14T06:31:56.201Z,13.90
2018-06-14T06:34:25.509Z,15.43
2018-06-14T06:36:54.738Z,21.20
2018-06-14T06:39:24.000Z,21.43
2018-06-14T06:41:53.274Z,14.43
2018-06-14T06:47:09.352Z,14.40
2018-06-14T06:49:38.660Z,16.33
2018-06-14T06:52:07.756Z,19.87
2018-06-14T06:54:37.004Z,16.30
2018-06-14T06:57:06.269Z,15.47
2018-06-14T06:59:35.439Z,16.67
2018-06-14T07:02:04.622Z,18.03
2018-06-14T07:04:35.301Z,14.63
2018-06-14T07:07:05.134Z,13.27
2018-06-14T07:09:34.251Z,14.77
2018-06-14T07:12:03.520Z,20.90
2018-06-14T07:14:32.681Z,13.67
2018-06-14T07:17:01.941Z,15.47
2018-06-14T07:19:31.095Z,19.37
2018-06-14T07:22:00.527Z,13.27
2018-06-14T07:24:29.812Z,13.53
2018-06-14T07:26:59.685Z,15.80
2018-06-14T07:29:29.497Z,17.83
2018-06-14T07:31:58.712Z,17.12
2018-06-14T07:34:28.116Z,11.53
2018-06-14T07:36:57.404Z,15.58
2018-06-14T07:39:26.877Z,15.50
2018-06-14T07:41:56.372Z,13.00
2018-06-14T07:44:25.894Z,11.00
2018-06-14T07:46:55.050Z,11.17
2018-06-14T07:49:24.403Z,9.83
2018-06-14T07:51:53.685Z,8.58
2018-06-14T07:54:23.485Z,10.60
2018-06-14T07:56:52.980Z,17.55
2018-06-14T07:59:22.179Z,13.50
2018-06-14T08:01:51.301Z,10.17
2018-06-14T08:04:20.573Z,8.23
2018-06-14T08:06:50.079Z,7.00
2018-06-14T08:09:19.340Z,9.63
2018-06-14T08:11:48.466Z,12.77
2018-06-14T08:14:17.805Z,7.47
2018-06-14T08:16:47.011Z,7.60
2018-06-14T08:19:16.112Z,6.80
2018-06-14T08:21:45.349Z,15.70
2018-06-14T08:24:14.580Z,9.10
2018-06-14T08:26:44.325Z,10.37
2018-06-14T08:29:13.489Z,6.80
2018-06-14T08:31:42.678Z,8.97
2018-06-14T08:34:11.986Z,7.45
2018-06-14T08:36:41.178Z,7.30
2018-06-14T08:39:10.817Z,7.10
2018-06-14T08:41:39.994Z,7.47
2018-06-14T08:44:09.195Z,7.17
2018-06-14T08:46:38.492Z,8.67
2018-06-14T08:49:07.712Z,8.80
2018-06-14T08:51:36.989Z,7.77
2018-06-14T08:54:06.204Z,9.57
2018-06-14T08:56:35.699Z,7.50
2018-06-14T08:59:04.833Z,8.20
2018-06-14T09:01:34.696Z,7.53
2018-06-14T09:04:03.925Z,6.30
2018-06-14T09:06:33.454Z,9.40
2018-06-14T09:09:03.035Z,11.80
2018-06-14T09:11:32.410Z,9.45
2018-06-14T09:14:01.754Z,7.00
2018-06-14T09:16:31.451Z,6.90
2018-06-14T09:19:01.880Z,6.15
2018-06-14T09:21:32.148Z,6.33
2018-06-14T09:24:01.600Z,6.00
2018-06-14T09:26:33.685Z,6.97
2018-06-14T09:29:08.908Z,7.60
2018-06-14T09:31:38.540Z,6.90
2018-06-14T09:34:09.024Z,8.53
2018-06-14T09:36:39.039Z,7.60
2018-06-14T09:39:10.378Z,7.80
2018-06-14T09:41:40.943Z,6.07
2018-06-14T09:44:10.444Z,6.20
2018-06-14T09:46:39.793Z,10.57
2018-06-14T09:49:16.336Z,10.27
2018-06-14T09:51:47.404Z,6.15
2018-06-14T09:54:18.697Z,6.50
2018-06-14T09:56:49.170Z,7.20
2018-06-14T09:59:19.763Z,9.13
2018-06-14T10:01:49.400Z,6.70
2018-06-14T10:04:18.762Z,8.55
2018-06-14T10:06:48.369Z,6.97
2018-06-14T10:09:18.258Z,7.73
2018-06-14T10:11:48.425Z,6.70
2018-06-14T10:14:17.884Z,6.65
2018-06-14T10:16:47.325Z,7.83
2018-06-14T10:19:16.808Z,5.43
2018-06-14T10:21:46.290Z,5.80
2018-06-14T10:24:15.601Z,6.57
2018-06-14T10:26:45.131Z,9.03
2018-06-14T10:29:14.800Z,10.20
2018-06-14T10:31:44.588Z,9.43
2018-06-14T10:34:14.041Z,12.10
2018-06-14T10:36:43.593Z,8.43
2018-06-14T10:39:13.252Z,7.87
2018-06-14T10:41:43.407Z,6.43
2018-06-14T10:44:13.552Z,19.45
2018-06-14T10:46:43.220Z,8.67
2018-06-14T10:49:12.826Z,6.93
2018-06-14T10:51:42.250Z,7.30
2018-06-14T10:54:12.120Z,8.48
2018-06-14T10:56:41.705Z,12.10
2018-06-14T10:59:10.956Z,5.97
2018-06-14T11:01:41.403Z,6.80
2018-06-14T11:04:11.064Z,8.90
2018-06-14T11:06:44.057Z,7.03
2018-06-14T11:09:13.887Z,6.93
2018-06-14T11:11:44.306Z,7.00
2018-06-14T11:14:14.349Z,6.55
2018-06-14T11:16:49.569Z,8.33
2018-06-14T11:19:21.447Z,5.25
2018-06-14T11:24:38.604Z,7.57
2018-06-14T11:27:16.014Z,6.67
2018-06-14T11:29:48.257Z,5.15
2018-06-14T11:32:22.824Z,5.17
2018-06-14T11:34:55.251Z,5.50
2018-06-14T11:37:28.535Z,7.63
2018-06-14T11:40:04.416Z,6.63
2018-06-14T11:42:34.130Z,10.33
2018-06-14T11:45:04.383Z,5.40
2018-06-14T11:47:35.213Z,5.93
2018-06-14T11:50:04.968Z,14.17
2018-06-14T11:52:34.738Z,5.40
2018-06-14T11:55:04.254Z,8.20
2018-06-14T11:57:33.520Z,7.50
2018-06-14T12:00:02.841Z,5.80
2018-06-14T12:02:32.732Z,6.57
2018-06-14T12:05:02.163Z,10.70
2018-06-14T12:07:31.964Z,11.97
2018-06-14T12:10:01.472Z,5.50
2018-06-14T12:12:30.703Z,6.33
2018-06-14T12:15:00.152Z,6.40
2018-06-14T12:17:29.299Z,5.90
2018-06-14T12:19:58.700Z,5.53
2018-06-14T12:22:27.955Z,8.30
2018-06-14T12:24:57.628Z,6.43
2018-06-14T12:27:27.158Z,6.83
2018-06-14T12:29:56.425Z,5.43
2018-06-14T12:32:25.566Z,6.40
2018-06-14T12:34:54.810Z,9.87
2018-06-14T12:37:24.000Z,5.80
2018-06-14T12:39:53.379Z,6.37
2018-06-14T12:42:22.948Z,5.83
2018-06-14T12:44:52.673Z,5.40
2018-06-14T12:47:23.206Z,9.00
2018-06-14T12:49:53.277Z,6.30
2018-06-14T12:52:22.711Z,7.10
2018-06-14T12:54:51.950Z,6.30
2018-06-14T12:57:21.305Z,5.67
2018-06-14T12:59:51.542Z,4.95
2018-06-14T13:02:21.336Z,6.43
2018-06-14T13:04:50.498Z,7.23
2018-06-14T13:07:19.626Z,8.93
2018-06-14T13:09:51.244Z,6.53
2018-06-14T13:12:21.900Z,7.70
2018-06-14T13:14:51.625Z,7.27
2018-06-14T13:17:21.933Z,6.33
2018-06-14T13:19:51.155Z,8.27
2018-06-14T13:22:20.478Z,5.87
2018-06-14T13:24:50.049Z,6.07
2018-06-14T13:27:19.436Z,6.90
2018-06-14T13:29:48.634Z,5.47
2018-06-14T13:32:19.603Z,7.20
2018-06-14T13:34:50.883Z,8.27
2018-06-14T13:37:20.136Z,8.30
2018-06-14T13:39:50.148Z,6.13
2018-06-14T13:42:19.775Z,5.70
2018-06-14T13:44:49.038Z,6.17
2018-06-14T13:47:18.279Z,6.03
2018-06-14T13:49:47.629Z,5.97
2018-06-14T13:52:16.889Z,8.55
2018-06-14T13:54:46.963Z,6.47
2018-06-14T13:57:16.376Z,7.35
2018-06-14T13:59:45.577Z,6.22
2018-06-14T14:02:15.473Z,5.78
2018-06-14T14:04:44.779Z,7.93
2018-06-14T14:07:19.206Z,8.60
2018-06-14T14:09:48.523Z,5.45
2018-06-14T14:12:17.920Z,5.73
2018-06-14T14:14:47.111Z,5.72
2018-06-14T14:17:20.224Z,5.67
2018-06-14T14:19:49.814Z,13.70
2018-06-14T14:22:31.115Z,6.53
2018-06-14T14:25:01.481Z,6.80
2018-06-14T14:27:30.927Z,6.30
2018-06-14T14:30:02.037Z,6.67
2018-06-14T14:32:31.577Z,5.97
2018-06-14T14:35:01.566Z,5.83
2018-06-14T14:37:33.063Z,6.07
2018-06-14T14:40:09.539Z,5.47
2018-06-14T14:42:41.367Z,9.20
2018-06-14T14:45:14.436Z,12.35
2018-06-14T14:47:47.381Z,8.17
2018-06-14T14:50:18.441Z,12.28
2018-06-14T14:52:49.086Z,5.80
2018-06-14T14:55:19.478Z,5.72
2018-06-14T15:00:27.059Z,7.00
2018-06-14T15:02:59.516Z,5.97
2018-06-14T15:05:36.286Z,7.00
2018-06-14T15:08:08.327Z,6.30
2018-06-14T15:10:40.347Z,11.00
2018-06-14T15:13:10.636Z,7.13
2018-06-14T15:15:41.934Z,6.37
2018-06-14T15:18:18.508Z,14.58
2018-06-14T15:20:47.937Z,6.87
2018-06-14T15:23:18.620Z,8.18
2018-06-14T15:25:49.044Z,7.37
2018-06-14T15:28:18.899Z,6.20
2018-06-14T15:30:49.307Z,6.67
2018-06-14T15:33:19.170Z,6.90
2018-06-14T15:35:48.302Z,7.93
2018-06-14T15:38:17.825Z,6.00
2018-06-14T15:40:48.260Z,6.73
2018-06-14T15:43:18.216Z,6.35
2018-06-14T15:45:48.641Z,7.50
2018-06-14T15:48:18.923Z,8.40
2018-06-14T15:50:50.365Z,7.23
2018-06-14T15:53:19.681Z,5.85
2018-06-14T15:56:02.509Z,6.83
2018-06-14T15:58:32.127Z,6.30
2018-06-14T16:01:03.270Z,6.90
2018-06-14T16:03:32.981Z,6.77
2018-06-14T16:06:02.327Z,10.10
2018-06-14T16:08:32.009Z,6.63
2018-06-14T16:11:02.023Z,7.47
2018-06-14T16:13:31.255Z,6.97
2018-06-14T16:16:00.543Z,6.80
2018-06-14T16:18:29.613Z,6.27
2018-06-14T16:20:59.314Z,6.50
2018-06-14T16:23:28.580Z,9.50
2018-06-14T16:25:57.829Z,7.47
2018-06-14T16:28:28.178Z,9.47
2018-06-14T16:30:58.446Z,8.30
2018-06-14T16:33:27.713Z,9.10
2018-06-14T16:35:57.087Z,7.58
2018-06-14T16:38:26.177Z,10.07
2018-06-14T16:40:55.351Z,7.27
2018-06-14T16:43:24.705Z,8.80
2018-06-14T16:45:54.024Z,8.80
2018-06-14T16:48:24.125Z,7.25
2018-06-14T16:50:53.363Z,7.80
2018-06-14T16:53:22.597Z,9.10
2018-06-14T16:55:51.732Z,9.33
2018-06-14T16:58:21.164Z,8.40
2018-06-14T17:00:50.693Z,9.33
2018-06-14T17:03:19.804Z,10.23
2018-06-14T17:05:49.677Z,9.20
2018-06-14T17:08:18.790Z,9.03
2018-06-14T17:10:47.978Z,10.70
2018-06-14T17:13:17.164Z,7.10
2018-06-14T17:15:46.226Z,10.70
2018-06-14T17:18:15.510Z,10.40
2018-06-14T17:20:44.665Z,7.87
2018-06-14T17:23:13.911Z,6.85
2018-06-14T17:25:43.197Z,10.10
2018-06-14T17:28:12.348Z,7.95
2018-06-14T17:30:41.731Z,7.63
2018-06-14T17:33:10.927Z,8.45
2018-06-14T17:35:40.066Z,13.43
2018-06-14T17:38:09.209Z,12.40
2018-06-14T17:40:38.342Z,7.93
2018-06-14T17:43:07.475Z,6.53
2018-06-14T17:45:36.975Z,7.77
2018-06-14T17:48:06.217Z,11.93
2018-06-14T17:50:35.445Z,9.27
2018-06-14T17:53:04.633Z,6.67
2018-06-14T17:55:33.907Z,13.37
2018-06-14T17:58:04.103Z,6.23
2018-06-14T18:00:33.431Z,6.10
2018-06-14T18:03:02.763Z,5.90
2018-06-14T18:05:31.965Z,11.70
2018-06-14T18:08:01.130Z,8.30
2018-06-14T18:10:30.353Z,8.40
2018-06-14T18:12:59.831Z,5.77
2018-06-14T18:15:30.494Z,7.43
2018-06-14T18:17:59.636Z,6.60
2018-06-14T18:20:28.785Z,6.53
2018-06-14T18:22:57.882Z,5.70
2018-06-14T18:25:27.369Z,5.65
2018-06-14T18:27:56.723Z,4.90
2018-06-14T18:30:25.875Z,4.83
2018-06-14T18:32:55.290Z,5.80
2018-06-14T18:35:33.112Z,6.58
2018-06-14T18:38:03.505Z,7.85
2018-06-14T18:40:33.094Z,8.63
2018-06-14T18:43:02.243Z,7.27
2018-06-14T18:45:33.571Z,6.40
2018-06-14T18:48:02.888Z,5.43
2018-06-14T18:50:32.093Z,6.57
2018-06-14T18:53:01.344Z,6.23
2018-06-14T18:55:30.482Z,5.93
2018-06-14T18:58:00.002Z,4.70
2018-06-14T19:00:29.270Z,5.73
2018-06-14T19:03:00.509Z,13.13
2018-06-14T19:05:31.145Z,4.93
2018-06-14T19:08:02.488Z,5.27
2018-06-14T19:10:33.354Z,7.20
2018-06-14T19:13:02.739Z,4.60
2018-06-14T19:15:32.028Z,10.70
2018-06-14T19:18:01.223Z,4.90
2018-06-14T19:20:30.549Z,5.60
2018-06-14T19:23:01.577Z,5.27
2018-06-14T19:25:30.772Z,5.00
2018-06-14T19:27:59.990Z,4.43
2018-06-14T19:30:29.302Z,5.43
2018-06-14T19:32:58.544Z,6.80
2018-06-14T19:35:28.894Z,6.80
2018-06-14T19:37:58.111Z,7.90
2018-06-14T19:40:27.485Z,8.73
2018-06-14T19:42:56.779Z,7.57
2018-06-14T19:45:26.184Z,9.13
2018-06-14T19:47:55.396Z,7.63
2018-06-14T19:50:24.557Z,5.13
2018-06-14T19:52:53.722Z,10.43
2018-06-14T19:55:22.988Z,5.23
2018-06-14T19:57:52.897Z,5.75
2018-06-14T20:00:22.014Z,10.43
2018-06-14T20:02:51.190Z,6.00
2018-06-14T20:05:20.355Z,6.13
2018-06-14T20:07:49.577Z,7.07
2018-06-14T20:10:18.690Z,8.88
2018-06-14T20:12:47.984Z,6.60
2018-06-14T20:15:17.156Z,6.08
2018-06-14T20:17:46.343Z,5.97
2018-06-14T20:20:16.091Z,6.12
2018-06-14T20:22:46.315Z,8.13
2018-06-14T20:25:16.333Z,7.37
2018-06-14T20:27:46.248Z,5.87
2018-06-14T20:30:15.434Z,6.50
2018-06-14T20:32:44.752Z,5.23
2018-06-14T20:35:14.142Z,5.60
2018-06-14T20:37:43.342Z,7.20
2018-06-14T20:40:12.593Z,4.22
2018-06-14T20:42:41.762Z,4.93
2018-06-14T20:45:10.914Z,4.97
2018-06-14T20:47:40.144Z,6.67
2018-06-14T20:50:10.349Z,4.50
2018-06-14T20:52:39.632Z,4.90
2018-06-14T20:55:08.754Z,5.77
2018-06-14T20:57:37.980Z,5.70
2018-06-14T21:00:07.147Z,6.97
2018-06-14T21:02:36.439Z,6.80
2018-06-14T21:05:06.573Z,5.28
2018-06-14T21:07:35.722Z,5.03
2018-06-14T21:10:04.974Z,5.47
2018-06-14T21:12:34.181Z,6.50
2018-06-14T21:15:03.356Z,5.28
2018-06-14T21:17:32.518Z,5.53
2018-06-14T21:20:01.755Z,5.23
2018-06-14T21:22:30.851Z,6.43
2018-06-14T21:25:00.033Z,6.03
2018-06-14T21:27:29.274Z,6.10
2018-06-14T21:29:58.571Z,6.70
2018-06-14T21:32:27.719Z,6.10
2018-06-14T21:34:57.036Z,7.17
2018-06-14T21:37:26.199Z,6.60
2018-06-14T21:39:55.591Z,6.65
2018-06-14T21:42:24.744Z,6.83
2018-06-14T21:44:53.938Z,7.28
2018-06-14T21:47:23.127Z,6.33
2018-06-14T21:49:52.342Z,6.20
2018-06-14T21:52:21.531Z,5.90
2018-06-14T21:54:50.729Z,5.50
2018-06-14T21:57:19.930Z,6.90
2018-06-14T21:59:49.132Z,6.67
2018-06-14T22:02:18.332Z,10.43
2018-06-14T22:04:47.580Z,8.63
2018-06-14T22:07:16.772Z,6.70
2018-06-14T22:09:45.957Z,7.37
2018-06-14T22:12:15.099Z,8.45
2018-06-14T22:14:44.207Z,8.50
2018-06-14T22:17:13.414Z,6.92
2018-06-14T22:19:42.538Z,7.27
2018-06-14T22:22:11.689Z,7.00
2018-06-14T22:24:40.843Z,6.63
2018-06-14T22:27:10.305Z,7.25
2018-06-14T22:29:39.590Z,6.80
2018-06-14T22:32:08.804Z,7.07
2018-06-14T22:34:49.065Z,6.90
2018-06-14T22:37:19.278Z,9.37
2018-06-14T22:39:48.381Z,7.80
2018-06-14T22:42:17.674Z,7.40
2018-06-14T22:44:46.798Z,9.90
2018-06-14T22:47:15.985Z,9.13
2018-06-14T22:49:45.588Z,7.10
2018-06-14T22:52:53.116Z,7.73
2018-06-14T22:55:23.413Z,11.33
2018-06-14T22:57:52.670Z,9.27
2018-06-14T23:01:32.983Z,8.88
2018-06-14T23:04:02.678Z,8.93
2018-06-14T23:06:32.503Z,7.57
2018-06-14T23:09:12.265Z,8.43
2018-06-14T23:11:41.759Z,7.67
2018-06-14T23:14:10.922Z,7.65
2018-06-14T23:16:40.117Z,8.47
2018-06-14T23:19:09.347Z,7.77
2018-06-14T23:21:38.646Z,7.27
2018-06-14T23:24:07.758Z,8.87
2018-06-14T23:26:36.924Z,8.30
2018-06-14T23:29:06.751Z,8.00
2018-06-14T23:31:36.163Z,7.87
2018-06-14T23:34:05.973Z,7.10
2018-06-14T23:36:35.158Z,8.00
2018-06-14T23:39:05.505Z,14.80
2018-06-14T23:41:34.682Z,7.87
2018-06-14T23:44:04.078Z,8.33
2018-06-14T23:46:33.209Z,11.50
2018-06-14T23:49:02.454Z,7.63
2018-06-14T23:51:31.664Z,9.17
2018-06-14T23:54:01.896Z,8.50
2018-06-14T23:56:31.149Z,11.43
2018-06-14T23:59:00.413Z,9.63
